Time;durP1;ratioP1;P1;durP2;ratioP2;P2;SDS_P1;SDS_P2;PMS_P1;PMS_P2;Temp;Humidity;BMP_temperature;BMP_pressure;BME280_temperature;BME280_humidity;BME280_pressure;Samples;Min_cycle;Max_cycle;Signal;HPM_P1;HPM_P2
2023/05/27 00:00:38;;;;;;;;;26.00;24.00;;;;;19.12;76.38;99904.97;6281430;20;3584663;-58
2023/05/27 00:03:06;;;;;;;;;24.33;22.67;;;;;19.13;76.88;99902.06;6283298;20;3591921;-59
2023/05/27 00:05:34;;;;;;;;;29.00;26.67;;;;;19.14;76.02;99908.38;6281701;20;3590990;-58
2023/05/27 00:08:03;;;;;;;;;28.00;23.00;;;;;19.10;77.03;99904.22;6281860;20;3595201;-58
2023/05/27 00:10:31;;;;;;;;;23.00;22.50;;;;;19.08;76.01;99905.22;6283847;20;3467998;-58
2023/05/27 00:12:59;;;;;;;;;22.33;19.33;;;;;19.14;75.75;99905.66;6313267;20;3574434;-57
2023/05/27 00:15:28;;;;;;;;;25.33;25.33;;;;;19.10;75.42;99904.22;6312977;20;3586875;-58
2023/05/27 00:17:59;;;;;;;;;26.00;23.33;;;;;19.17;75.64;99895.34;6285174;20;3580462;-57
2023/05/27 00:20:30;;;;;;;;;25.33;25.33;;;;;19.16;76.11;99909.09;6278700;20;3597171;-59
2023/05/27 00:23:00;;;;;;;;;23.00;22.67;;;;;19.15;76.41;99896.50;6280485;20;3585814;-58
2023/05/27 00:25:29;;;;;;;;;24.67;23.00;;;;;19.14;77.05;99897.47;6282458;20;2849353;-58
2023/05/27 00:27:58;;;;;;;;;24.33;24.33;;;;;19.13;77.35;99893.06;6314903;20;3600398;-58
2023/05/27 00:30:26;;;;;;;;;24.67;23.00;;;;;19.10;77.97;99896.94;6283284;20;3582608;-58
2023/05/27 00:32:57;;;;;;;;;23.00;22.67;;;;;19.07;78.02;99892.63;6276357;20;3571242;-59
2023/05/27 00:35:26;;;;;;;;;24.00;23.00;;;;;19.05;78.02;99886.47;6281316;20;3587745;-59
2023/05/27 00:37:54;;;;;;;;;31.00;28.33;;;;;19.05;78.76;99886.47;6281895;20;3601335;-58
2023/05/27 00:40:25;;;;;;;;;25.33;22.00;;;;;19.01;79.27;99886.88;6279624;20;3583600;-58
2023/05/27 00:42:53;;;;;;;;;25.67;24.33;;;;;18.97;78.98;99883.59;6283282;20;3585782;-56
2023/05/27 00:45:21;;;;;;;;;26.67;25.00;;;;;18.86;79.91;99890.03;6283529;20;3591900;-58
2023/05/27 00:47:50;;;;;;;;;22.67;20.33;;;;;19.05;79.73;99886.47;6281348;20;3576426;-58
2023/05/27 00:50:19;;;;;;;;;27.67;24.67;;;;;18.98;80.00;99884.47;6278075;20;3596242;-58
2023/05/27 00:52:47;;;;;;;;;25.67;24.00;;;;;19.04;79.44;99887.47;6281471;20;3582592;-58
2023/05/27 00:55:16;;;;;;;;;22.67;22.67;;;;;18.97;79.74;99880.88;6280893;20;3587725;-58
2023/05/27 00:57:44;;;;;;;;;23.67;23.00;;;;;18.84;80.42;99886.59;6284830;20;3588839;-58
2023/05/27 01:00:14;;;;;;;;;26.67;24.67;;;;;19.00;81.44;99883.31;6279076;20;3598328;-58
2023/05/27 01:02:42;;;;;;;;;23.67;22.67;;;;;18.88;83.07;99883.59;6278880;20;3577786;-58
2023/05/27 01:05:15;;;;;;;;;28.00;24.00;;;;;18.76;84.25;99886.47;6282837;20;3598144;-58
2023/05/27 01:08:26;;;;;;;;;31.00;29.67;;;;;18.85;85.04;99890.19;6280862;20;3589903;-57
2023/05/27 01:10:55;;;;;;;;;29.33;28.33;;;;;18.68;86.23;99888.16;6278457;20;3607750;-58
2023/05/27 01:13:42;;;;;;;;;26.67;23.33;;;;;18.82;86.16;99888.59;6280902;20;3584648;-58
2023/05/27 01:16:13;;;;;;;;;26.00;24.67;;;;;18.77;86.28;99877.31;6280790;20;3591911;-58
2023/05/27 01:18:46;;;;;;;;;25.67;24.33;;;;;18.74;86.78;99877.53;6278318;20;3608664;-59
2023/05/27 01:21:17;;;;;;;;;27.00;26.00;;;;;18.72;86.58;99879.56;6276759;20;3584794;-58
2023/05/27 01:23:49;;;;;;;;;27.00;23.00;;;;;18.74;86.61;99874.81;6278085;20;3576315;-59
2023/05/27 01:26:17;;;;;;;;;22.00;20.67;;;;;18.65;86.58;99879.25;6279131;20;3585731;-59
2023/05/27 01:28:46;;;;;;;;;26.33;22.33;;;;;18.60;86.82;99881.53;6280008;20;3583680;-57
2023/05/27 01:31:29;;;;;;;;;27.33;24.00;;;;;18.65;87.16;99879.25;6284053;20;3600309;-58
2023/05/27 01:34:08;;;;;;;;;28.67;26.33;;;;;18.74;87.01;99876.69;6276092;20;3593789;-58
2023/05/27 01:36:55;;;;;;;;;27.00;22.33;;;;;18.63;88.04;99881.25;6282170;20;3585704;-58
2023/05/27 01:39:25;;;;;;;;;28.67;26.67;;;;;18.56;88.01;99874.69;6276820;20;3608685;-59
2023/05/27 01:41:54;;;;;;;;;30.00;27.00;;;;;18.41;88.18;99878.81;6288545;20;3590896;-58
2023/05/27 01:44:23;;;;;;;;;27.33;24.00;;;;;18.54;87.73;99876.69;6283649;20;3578444;-58
2023/05/27 01:46:51;;;;;;;;;24.00;21.00;;;;;18.54;88.66;99882.13;6287380;20;3585714;-58
2023/05/27 01:49:20;;;;;;;;;28.67;24.67;;;;;18.51;88.60;99876.97;6282269;20;3600301;-59
2023/05/27 01:51:48;;;;;;;;;26.00;26.00;;;;;18.51;88.57;99871.53;6286312;20;3606535;-59
2023/05/27 01:54:17;;;;;;;;;29.67;24.00;;;;;18.60;88.23;99872.53;6284808;20;3601359;-58
2023/05/27 01:56:44;;;;;;;;;25.50;25.50;;;;;18.55;88.05;99872.94;6317003;20;2667601;-58
2023/05/27 01:59:13;;;;;;;;;27.67;27.33;;;;;18.44;88.84;99870.38;6284552;20;3600376;-59
2023/05/27 02:01:41;;;;;;;;;25.00;23.00;;;;;18.46;89.57;99868.38;6287995;20;2630501;-58
2023/05/27 02:04:10;;;;;;;;;28.33;26.00;;;;;18.46;89.21;99868.38;6286840;20;3594168;-58
2023/05/27 02:06:38;;;;;;;;;30.00;27.00;;;;;18.25;90.65;99867.63;6282913;20;3600423;-59
2023/05/27 02:09:06;;;;;;;;;26.67;23.33;;;;;18.36;91.02;99862.06;6284011;20;3594106;-59
2023/05/27 02:11:34;;;;;;;;;27.67;24.00;;;;;18.38;90.31;99865.50;6282250;20;3591993;-58
2023/05/27 02:14:05;;;;;;;;;28.33;26.33;;;;;18.29;90.55;99858.16;6279691;20;3590932;-59
2023/05/27 02:16:33;;;;;;;;;28.67;26.00;;;;;18.40;90.39;99858.03;6286024;20;3602400;-58
2023/05/27 02:19:02;;;;;;;;;31.00;26.67;;;;;18.32;90.53;99860.59;6285005;20;3595239;-59
2023/05/27 02:21:32;;;;;;;;;33.00;29.25;;;;;18.21;91.41;99857.00;6283838;20;3604702;-58
2023/05/27 02:24:00;;;;;;;;;27.67;25.00;;;;;18.23;91.65;99854.16;6316596;20;3602516;-58
2023/05/27 02:26:29;;;;;;;;;29.67;26.33;;;;;18.26;91.98;99855.72;6284330;20;3612896;-58
2023/05/27 02:28:57;;;;;;;;;30.00;27.67;;;;;18.14;91.65;99852.25;6314494;20;3590937;-58
2023/05/27 02:31:26;;;;;;;;;27.67;27.00;;;;;18.11;92.56;99852.53;6284932;20;3599186;-58
2023/05/27 02:33:54;;;;;;;;;25.00;25.00;;;;;18.18;92.27;99854.56;6286430;20;3588784;-58
2023/05/27 02:36:23;;;;;;;;;29.67;27.33;;;;;18.15;91.44;99864.88;6283755;20;3604460;-59
2023/05/27 02:38:52;;;;;;;;;27.00;27.00;;;;;18.20;91.09;99866.16;6285529;20;3600398;-59
2023/05/27 02:41:20;;;;;;;;;30.67;28.67;;;;;18.18;90.83;99870.00;6286686;20;3588902;-59
2023/05/27 02:43:48;;;;;;;;;33.00;29.00;;;;;17.98;91.87;99871.78;6283966;20;3485682;-59
2023/05/27 02:46:17;;;;;;;;;31.33;28.67;;;;;17.96;92.79;99862.94;6316552;20;3598281;-58
2023/05/27 02:48:47;;;;;;;;;31.75;27.25;;;;;17.88;93.21;99873.63;6280068;20;3607665;-58
2023/05/27 02:51:15;;;;;;;;;30.67;27.00;;;;;17.80;94.01;99870.72;6314140;20;3595112;-59
2023/05/27 02:53:43;;;;;;;;;30.33;28.67;;;;;17.91;93.89;99870.66;6287841;20;3590955;-58
2023/05/27 02:56:11;;;;;;;;;21.00;18.00;;;;;17.86;93.94;99870.19;6279115;20;2839900;-59
2023/05/27 02:58:40;;;;;;;;;31.00;30.00;;;;;17.92;93.48;99866.91;6286193;20;3594042;-59
2023/05/27 03:01:08;;;;;;;;;32.67;30.00;;;;;17.81;94.72;99870.59;6282595;20;3581540;-60
2023/05/27 03:03:36;;;;;;;;;26.67;25.00;;;;;17.77;94.45;99872.69;6283726;20;3594009;-59
2023/05/27 03:06:05;;;;;;;;;30.00;28.33;;;;;17.70;93.68;99874.22;6283640;20;3587877;-59
2023/05/27 03:08:33;;;;;;;;;27.67;25.33;;;;;17.65;94.95;99873.78;6287143;20;3595072;-59
2023/05/27 03:11:01;;;;;;;;;36.33;32.00;;;;;17.69;94.68;99877.06;6284263;20;3615950;-59
2023/05/27 03:13:29;;;;;;;;;30.00;27.33;;;;;17.78;93.53;99879.84;6284283;20;3598294;-59
2023/05/27 03:15:58;;;;;;;;;29.33;27.67;;;;;17.78;93.53;99882.56;6283056;20;3597207;-59
2023/05/27 03:18:26;;;;;;;;;27.33;26.33;;;;;17.77;91.98;99894.44;6285686;20;3594019;-59
2023/05/27 03:20:54;;;;;;;;;27.00;25.67;;;;;17.82;91.60;99893.19;6280791;20;3596493;-58
2023/05/27 03:23:23;;;;;;;;;30.33;29.00;;;;;17.73;91.76;99890.25;6282935;20;3572167;-59
2023/05/27 03:25:51;;;;;;;;;29.00;29.00;;;;;17.92;90.63;99899.53;6284503;20;3601315;-59
2023/05/27 03:28:19;;;;;;;;;45.00;35.33;;;;;17.80;91.09;99890.63;6282663;20;3609663;-59
2023/05/27 03:30:55;;;;;;;;;219.57;189.43;;;;;17.66;91.71;99888.22;6292083;20;2544022;-59
2023/05/27 03:33:23;;;;;;;;;231.00;198.00;;;;;17.87;90.33;99899.91;6304234;20;1960854;-59
2023/05/27 03:35:52;;;;;;;;;35.00;32.33;;;;;17.87;90.12;99897.19;6281205;20;2859744;-59
2023/05/27 03:38:21;;;;;;;;;39.67;32.67;;;;;17.98;89.76;99899.84;6316398;20;3610682;-58
2023/05/27 03:40:50;;;;;;;;;117.00;105.33;;;;;17.94;90.29;99890.25;6283700;20;3696107;-58
2023/05/27 03:43:21;;;;;;;;;151.50;134.13;;;;;18.01;89.77;99890.56;6274822;20;3733655;-59
2023/05/27 03:45:49;;;;;;;;;82.50;73.00;;;;;18.09;89.29;99888.03;6277451;20;1930974;-59
2023/05/27 03:48:20;;;;;;;;;161.75;147.50;;;;;18.07;88.56;99890.00;6275548;20;3720128;-59
2023/05/27 03:50:49;;;;;;;;;72.25;60.75;;;;;18.13;88.54;99894.03;6279093;20;3628412;-59
2023/05/27 03:53:18;;;;;;;;;62.25;49.00;;;;;18.20;87.64;99885.19;6315806;20;3626320;-59
2023/05/27 03:55:47;;;;;;;;;45.33;38.00;;;;;18.23;87.64;99892.19;6312466;20;3578798;-59
2023/05/27 03:58:16;;;;;;;;;33.67;31.00;;;;;18.26;87.38;99900.06;6280744;20;3606477;-59
2023/05/27 04:00:44;;;;;;;;;29.00;29.00;;;;;18.20;87.69;99898.78;6278364;20;3593996;-59
2023/05/27 04:03:12;;;;;;;;;28.00;25.00;;;;;18.34;86.94;99908.38;6280251;20;3604489;-59
2023/05/27 04:05:41;;;;;;;;;29.67;29.33;;;;;18.34;86.97;99907.53;6268956;20;3592129;-59
2023/05/27 04:08:09;;;;;;;;;24.33;22.33;;;;;18.44;86.49;99903.00;6274646;20;3584664;-58
2023/05/27 04:10:37;;;;;;;;;31.00;25.67;;;;;18.56;86.04;99907.31;6282380;20;3605467;-59
2023/05/27 04:13:05;;;;;;;;;30.67;27.33;;;;;18.69;86.28;99908.88;6278728;20;3610657;-59
2023/05/27 04:15:34;;;;;;;;;23.33;23.33;;;;;18.67;85.60;99911.78;6281290;20;3587748;-58
2023/05/27 04:18:03;;;;;;;;;26.00;26.00;;;;;18.67;85.31;99908.16;6310116;20;3597387;-60
2023/05/27 04:20:37;;;;;;;;;29.00;28.00;;;;;18.62;85.68;99904.03;6281559;20;3549241;-60
2023/05/27 04:23:08;;;;;;;;;28.33;27.67;;;;;18.73;85.48;99902.19;6280873;20;3597131;-59
2023/05/27 04:25:37;;;;;;;;;28.33;26.33;;;;;18.77;84.71;99903.63;6280738;20;3590905;-58
2023/05/27 04:28:06;;;;;;;;;26.33;25.00;;;;;18.67;84.58;99911.78;6284364;20;3596084;-58
2023/05/27 04:30:35;;;;;;;;;28.00;26.00;;;;;18.71;84.53;99909.63;6273872;20;3595134;-58
2023/05/27 04:33:04;;;;;;;;;25.67;24.33;;;;;18.68;84.44;99909.91;6280097;20;3596201;-59
2023/05/27 04:35:32;;;;;;;;;26.00;24.67;;;;;18.64;84.11;99912.03;6284545;20;3591949;-58
2023/05/27 04:38:03;;;;;;;;;22.00;21.00;;;;;18.70;84.99;99913.34;6280723;20;2829573;-58
2023/05/27 04:40:34;;;;;;;;;27.00;25.67;;;;;18.74;83.71;99914.78;6283398;20;3604553;-58
2023/05/27 04:43:02;;;;;;;;;28.33;24.33;;;;;18.69;83.92;99922.50;6284648;20;3606538;-55
2023/05/27 04:45:30;;;;;;;;;25.00;24.00;;;;;18.63;84.25;99923.91;6278356;20;3584695;-59
2023/05/27 04:47:58;;;;;;;;;25.00;24.67;;;;;18.68;83.25;99927.06;6281897;20;3583746;-59
2023/05/27 04:50:27;;;;;;;;;29.00;26.00;;;;;18.70;83.27;99927.81;6277510;20;3587791;-59
2023/05/27 04:52:55;;;;;;;;;29.33;23.33;;;;;18.70;82.72;99929.66;6284772;20;3612765;-59
2023/05/27 04:55:23;;;;;;;;;25.00;25.00;;;;;18.74;82.21;99925.66;6282857;20;3595028;-60
2023/05/27 04:57:52;;;;;;;;;24.00;21.00;;;;;19.00;82.19;99932.28;6281262;20;3584765;-59
2023/05/27 05:00:35;;;;;;;;;23.00;23.00;;;;;19.06;82.18;99923.56;6277717;20;3584676;-59
2023/05/27 05:03:05;;;;;;;;;26.33;23.00;;;;;19.24;81.62;99931.00;6279081;20;3584740;-59
2023/05/27 05:05:35;;;;;;;;;24.00;20.33;;;;;19.51;79.56;99942.03;6280021;20;3578370;-59
2023/05/27 05:08:04;;;;;;;;;24.67;22.00;;;;;19.97;78.92;99939.50;6282181;20;3591960;-59
2023/05/27 05:10:32;;;;;;;;;23.00;21.33;;;;;21.35;72.07;99938.53;6281146;20;3581558;-58
2023/05/27 05:13:00;;;;;;;;;25.00;24.00;;;;;20.80;73.63;99934.06;6282637;20;3583673;-58
2023/05/27 05:15:30;;;;;;;;;23.67;22.67;;;;;21.01;72.29;99941.97;6280767;20;3579614;-58
2023/05/27 05:17:59;;;;;;;;;21.33;21.33;;;;;21.14;70.82;99931.50;6280324;20;2839884;-60
2023/05/27 05:20:28;;;;;;;;;21.33;21.00;;;;;20.95;70.31;99937.13;6315237;20;3566968;-59
2023/05/27 05:22:58;;;;;;;;;22.33;20.67;;;;;20.82;69.98;99930.19;6288974;20;3579936;-59
2023/05/27 05:25:26;;;;;;;;;20.33;20.00;;;;;20.94;69.15;99935.44;6288606;20;3582549;-59
2023/05/27 05:27:54;;;;;;;;;22.00;22.00;;;;;20.76;69.11;99935.41;6287988;20;3576319;-59
2023/05/27 05:30:23;;;;;;;;;19.33;19.00;;;;;20.87;69.41;99931.59;6284677;20;3568045;-59
2023/05/27 05:32:51;;;;;;;;;20.33;19.33;;;;;20.96;69.90;99936.16;6313669;20;3572408;-59
2023/05/27 05:35:19;;;;;;;;;22.00;20.00;;;;;21.07;68.16;99938.63;6278011;20;3577411;-59
2023/05/27 05:37:49;;;;;;;;;22.33;19.00;;;;;21.35;67.84;99931.19;6287299;20;3568048;-59
2023/05/27 05:40:18;;;;;;;;;20.00;18.67;;;;;21.24;68.23;99932.28;6274674;20;2833637;-59
2023/05/27 05:42:47;;;;;;;;;21.67;19.00;;;;;21.16;68.12;99934.09;6317554;20;2842985;-58
2023/05/27 05:45:16;;;;;;;;;18.00;18.00;;;;;21.29;66.77;99941.91;6316003;20;3567143;-58
2023/05/27 05:47:44;;;;;;;;;19.67;19.33;;;;;21.27;67.31;99944.78;6321125;20;3581532;-59
2023/05/27 05:50:12;;;;;;;;;18.67;18.67;;;;;21.33;66.36;99946.00;6286286;20;3566028;-59
2023/05/27 05:52:40;;;;;;;;;22.50;17.50;;;;;21.69;64.92;99947.72;6283791;20;2838918;-59
2023/05/27 05:55:09;;;;;;;;;17.00;17.00;;;;;21.67;65.18;99943.44;6289133;20;3573194;-58
2023/05/27 05:57:37;;;;;;;;;18.33;17.00;;;;;21.47;64.74;99953.69;6288050;20;3568994;-59
2023/05/27 06:00:08;;;;;;;;;21.00;20.33;;;;;21.79;64.42;99963.16;6284153;20;3575293;-59
2023/05/27 06:02:36;;;;;;;;;17.33;16.00;;;;;21.45;63.26;99955.72;6288096;20;3564898;-59
2023/05/27 06:05:04;;;;;;;;;18.33;16.33;;;;;21.70;62.83;99971.31;6320511;20;3566055;-60
2023/05/27 06:07:33;;;;;;;;;18.00;18.00;;;;;21.69;62.82;99969.56;6282648;20;2828424;-59
2023/05/27 06:10:01;;;;;;;;;18.50;16.00;;;;;21.72;62.22;99971.13;6284641;20;2824271;-58
2023/05/27 06:12:29;;;;;;;;;23.00;17.67;;;;;21.74;62.09;99974.56;6290074;20;3558617;-59
2023/05/27 06:14:58;;;;;;;;;23.33;19.67;;;;;21.80;62.03;99981.28;6317449;20;2831563;-57
2023/05/27 06:17:26;;;;;;;;;19.00;17.00;;;;;21.94;62.01;99980.69;6316277;20;3569023;-59
2023/05/27 06:19:55;;;;;;;;;19.00;17.67;;;;;21.92;61.58;99980.00;6281363;20;2839906;-59
2023/05/27 06:22:23;;;;;;;;;21.00;17.67;;;;;22.17;60.40;99986.50;6318854;20;3564976;-59
2023/05/27 06:24:52;;;;;;;;;18.50;17.50;;;;;22.07;60.50;99988.47;6277133;20;2831580;-59
2023/05/27 06:27:20;;;;;;;;;21.00;18.00;;;;;22.21;58.89;100000.72;6288712;20;3566154;-60
2023/05/27 06:29:48;;;;;;;;;19.00;17.00;;;;;22.61;59.09;99994.59;6280518;20;2832993;-59
2023/05/27 06:32:16;;;;;;;;;15.67;15.67;;;;;23.04;58.19;100000.94;6281781;20;2483677;-59
2023/05/27 06:34:46;;;;;;;;;20.00;16.00;;;;;22.81;57.46;99997.94;6312976;20;3557577;-59
2023/05/27 06:37:14;;;;;;;;;19.00;17.33;;;;;23.08;58.75;100004.19;6286218;20;3579434;-59
2023/05/27 06:39:42;;;;;;;;;16.33;14.67;;;;;23.01;57.36;100006.75;6284048;20;3541990;-56
2023/05/27 06:42:10;;;;;;;;;17.00;17.00;;;;;23.55;54.83;100006.34;6284391;20;2832592;-60
2023/05/27 06:44:38;;;;;;;;;17.33;17.33;;;;;23.34;55.67;100004.09;6288082;20;3562855;-60
2023/05/27 06:47:06;;;;;;;;;18.00;15.67;;;;;23.64;55.20;99999.81;6284185;20;2489883;-59
2023/05/27 06:49:35;;;;;;;;;20.67;17.67;;;;;23.82;54.55;100008.75;6313702;20;3574217;-59
2023/05/27 06:52:03;;;;;;;;;14.50;14.50;;;;;24.51;53.72;100016.53;6282024;20;2807652;-59
2023/05/27 06:54:34;;;;;;;;;17.00;16.00;;;;;24.06;52.13;100013.34;6282636;20;2825355;-59
2023/05/27 06:57:03;;;;;;;;;15.00;13.67;;;;;24.46;50.57;100021.69;6282564;20;3528431;-59
2023/05/27 06:59:31;;;;;;;;;16.00;14.33;;;;;24.05;49.18;100024.50;6317459;20;3548217;-59
2023/05/27 07:01:59;;;;;;;;;17.00;15.67;;;;;24.00;48.95;100024.16;6313662;20;3562773;-59
2023/05/27 07:04:28;;;;;;;;;12.67;12.67;;;;;23.38;49.33;100025.50;6283953;20;2483646;-59
2023/05/27 07:06:56;;;;;;;;;13.33;12.00;;;;;23.63;48.56;100020.03;6315424;20;3513798;-59
2023/05/27 07:09:24;;;;;;;;;13.67;13.67;;;;;24.36;47.77;100027.38;6312961;20;2483637;-59
2023/05/27 07:11:52;;;;;;;;;15.00;12.67;;;;;24.24;48.66;100017.78;6313706;20;2489886;-59
2023/05/27 07:14:20;;;;;;;;;14.33;13.00;;;;;24.40;47.71;100022.38;6319726;20;3528382;-59
2023/05/27 07:16:48;;;;;;;;;13.67;13.67;;;;;24.06;49.15;100021.56;6313396;20;3531732;-59
2023/05/27 07:19:17;;;;;;;;;15.67;15.00;;;;;24.71;48.71;100020.59;6285693;20;3538998;-59
2023/05/27 07:21:45;;;;;;;;;16.33;13.00;;;;;25.13;48.16;100018.50;6309978;20;2483658;-58
2023/05/27 07:24:13;;;;;;;;;14.33;12.00;;;;;24.66;46.35;100022.16;6310183;20;3509796;-59
2023/05/27 07:26:41;;;;;;;;;15.33;11.67;;;;;25.42;44.99;100027.97;6313356;20;3523225;-60
2023/05/27 07:29:10;;;;;;;;;12.67;11.33;;;;;24.61;46.23;100025.44;6320373;20;2787951;-59
2023/05/27 07:31:38;;;;;;;;;14.33;13.67;;;;;24.60;44.49;100031.97;6310466;20;2782681;-59
2023/05/27 07:34:07;;;;;;;;;11.67;8.33;;;;;24.56;45.19;100027.00;6311247;20;3490024;-59
2023/05/27 07:36:35;;;;;;;;;15.67;15.00;;;;;25.01;44.46;100028.19;6311553;20;2485824;-59
2023/05/27 07:39:04;;;;;;;;;9.60;6.80;;;;;24.53;44.67;100020.81;6335620;20;2756684;-59
2023/05/27 07:41:33;;;;;;;;;13.33;11.67;;;;;24.69;44.82;100030.88;6285712;20;2492027;-59
2023/05/27 07:44:01;;;;;;;;;15.33;13.00;;;;;24.94;43.81;100020.66;6310381;20;2486385;-59
2023/05/27 07:46:30;;;;;;;;;13.00;11.00;;;;;25.34;44.82;100012.38;6305903;20;3520188;-60
2023/05/27 07:48:58;;;;;;;;;14.67;13.67;;;;;25.45;44.46;100025.72;6311142;20;2483688;-59
2023/05/27 07:51:26;;;;;;;;;11.00;11.00;;;;;24.65;44.04;100025.94;6315163;20;3513921;-58
2023/05/27 07:53:55;;;;;;;;;16.00;14.00;;;;;25.16;44.77;100020.91;6311248;20;3533746;-59
2023/05/27 07:56:23;;;;;;;;;13.00;11.33;;;;;25.23;45.03;100023.81;6283551;20;3518004;-59
2023/05/27 07:58:51;;;;;;;;;8.00;8.00;;;;;25.10;45.16;100019.72;6287847;20;2750440;-59
2023/05/27 08:01:19;;;;;;;;;11.00;11.00;;;;;25.07;44.34;100025.56;6313191;20;3528376;-58
2023/05/27 08:03:47;;;;;;;;;12.00;12.00;;;;;25.33;43.22;100024.41;6281344;20;3517466;-60
2023/05/27 08:06:17;;;;;;;;;10.33;10.33;;;;;25.37;43.09;100020.28;6278940;20;3492994;-59
2023/05/27 08:08:47;;;;;;;;;7.67;7.67;;;;;24.77;44.09;100029.16;6309729;20;2742007;-59
2023/05/27 08:11:15;;;;;;;;;13.33;12.00;;;;;24.70;42.91;100024.38;6320381;20;2794023;-58
2023/05/27 08:13:43;;;;;;;;;14.00;14.00;;;;;24.90;43.31;100015.69;6309786;20;2803467;-60
2023/05/27 08:16:11;;;;;;;;;18.33;16.67;;;;;25.81;43.12;100023.19;6276669;20;3555512;-56
2023/05/27 08:18:39;;;;;;;;;39.00;33.00;;;;;25.06;42.73;100017.50;6271920;20;3610834;-59
2023/05/27 08:21:08;;;;;;;;;15.00;15.00;;;;;24.85;42.30;100026.38;6282965;20;3538884;-59
2023/05/27 08:23:36;;;;;;;;;11.67;11.67;;;;;25.23;41.80;100012.81;6281205;20;3520098;-61
2023/05/27 08:26:04;;;;;;;;;16.33;15.00;;;;;24.95;43.99;100022.38;6318357;20;3546190;-60
2023/05/27 08:28:36;;;;;;;;;13.33;12.33;;;;;24.89;42.96;100016.75;6313964;20;3513849;-59
2023/05/27 08:31:05;;;;;;;;;11.67;11.67;;;;;24.85;41.25;100020.88;6282696;20;3510852;-58
2023/05/27 08:33:33;;;;;;;;;12.33;11.33;;;;;25.09;43.35;100011.63;6311968;20;3520078;-58
2023/05/27 08:36:01;;;;;;;;;24.00;20.00;;;;;25.14;43.46;100015.56;6277352;20;2833641;-59
2023/05/27 08:38:29;;;;;;;;;12.00;11.00;;;;;25.32;41.67;100018.06;6281275;20;3530496;-59
2023/05/27 08:40:58;;;;;;;;;10.33;9.00;;;;;24.95;41.88;100018.75;6279051;20;3489852;-59
2023/05/27 08:43:27;;;;;;;;;10.67;9.67;;;;;24.86;42.84;100017.09;6309734;20;3496714;-59
2023/05/27 08:45:56;;;;;;;;;12.67;9.00;;;;;24.40;42.75;100027.88;6313464;20;2767033;-57
2023/05/27 08:48:25;;;;;;;;;12.00;11.33;;;;;24.98;43.02;100026.63;6310239;20;3506606;-58
2023/05/27 08:50:53;;;;;;;;;21.67;18.00;;;;;25.11;41.13;100015.91;6315059;20;3573254;-58
2023/05/27 08:53:22;;;;;;;;;12.00;11.33;;;;;25.02;41.31;100028.00;6284532;20;3513851;-59
2023/05/27 08:55:54;;;;;;;;;12.00;10.00;;;;;24.95;41.00;100016.88;6310368;20;3520227;-59
2023/05/27 08:58:22;;;;;;;;;11.67;11.67;;;;;25.16;42.41;100018.16;6309826;20;3518381;-58
2023/05/27 09:00:51;;;;;;;;;14.33;12.67;;;;;25.63;41.71;100022.66;6313688;20;3513879;-59
2023/05/27 09:03:19;;;;;;;;;13.00;13.00;;;;;25.80;41.69;100031.63;6281087;20;3518216;-59
2023/05/27 09:05:50;;;;;;;;;158.25;128.00;;;;;26.09;41.90;100030.03;6301841;20;3734622;-60
2023/05/27 09:08:19;;;;;;;;;15.00;13.00;;;;;25.49;41.25;100024.31;6273950;20;3541912;-58
2023/05/27 09:10:47;;;;;;;;;18.00;16.33;;;;;25.66;41.52;100030.53;6285021;20;3571118;-59
2023/05/27 09:13:27;;;;;;;;;49.00;39.00;;;;;26.19;42.25;100019.59;6279267;20;3608655;-58
2023/05/27 09:16:04;;;;;;;;;45.00;38.33;;;;;25.79;43.24;100024.41;6310324;20;3596111;-59
2023/05/27 09:18:35;;;;;;;;;54.75;42.00;;;;;25.72;41.83;100024.28;6280237;20;3605675;-59
2023/05/27 09:21:05;;;;;;;;;59.75;47.75;;;;;25.48;43.00;100025.34;6306442;20;3623315;-59
2023/05/27 09:23:38;;;;;;;;;57.50;43.75;;;;;26.05;42.22;100019.38;6314043;20;3617072;-59
2023/05/27 09:26:12;;;;;;;;;23.00;21.00;;;;;26.69;41.49;100015.28;6312978;20;3577424;-59
2023/05/27 09:28:40;;;;;;;;;18.33;16.00;;;;;26.61;42.40;100024.50;6315538;20;3566914;-58
2023/05/27 09:31:09;;;;;;;;;18.67;15.00;;;;;26.03;42.29;100018.72;6276448;20;3549202;-58
2023/05/27 09:33:39;;;;;;;;;13.67;12.33;;;;;26.32;41.53;100017.06;6286156;20;3527510;-60
2023/05/27 09:36:11;;;;;;;;;15.67;13.00;;;;;26.32;40.34;100014.31;6312013;20;3524214;-59
2023/05/27 09:38:39;;;;;;;;;15.00;11.33;;;;;26.17;41.23;100010.66;6312971;20;3512885;-60
2023/05/27 09:41:07;;;;;;;;;14.00;9.33;;;;;25.95;42.76;100013.28;6310394;20;3500397;-59
2023/05/27 09:43:35;;;;;;;;;7.00;7.00;;;;;26.04;41.30;100022.31;6312999;20;2752363;-60
2023/05/27 09:46:14;;;;;;;;;11.33;11.33;;;;;26.62;41.58;100011.56;6308763;20;3509746;-60
2023/05/27 09:48:43;;;;;;;;;12.33;11.00;;;;;26.41;40.72;100013.19;6309583;20;3515932;-60
2023/05/27 09:51:12;;;;;;;;;49.25;41.50;;;;;26.30;42.23;100015.53;6313136;20;3603467;-59
2023/05/27 09:53:42;;;;;;;;;17.00;16.00;;;;;26.70;41.30;100006.00;6312100;20;3565043;-61
2023/05/27 09:56:10;;;;;;;;;10.00;9.00;;;;;26.54;40.53;100007.03;6284154;20;2763901;-60
2023/05/27 09:58:38;;;;;;;;;12.67;12.67;;;;;26.49;41.80;100004.81;6313822;20;3518345;-59
2023/05/27 10:01:07;;;;;;;;;18.33;18.33;;;;;26.52;41.99;100002.78;6309841;20;2833177;-58
2023/05/27 10:03:38;;;;;;;;;10.00;7.67;;;;;26.60;41.03;100005.44;6323669;20;2758986;-59
2023/05/27 10:06:07;;;;;;;;;11.33;9.33;;;;;26.66;39.59;99997.22;6315238;20;3502364;-59
2023/05/27 10:08:35;;;;;;;;;19.00;11.00;;;;;26.80;41.53;100008.44;6312745;20;2815910;-59
2023/05/27 10:11:03;;;;;;;;;13.00;13.00;;;;;26.74;39.89;100006.44;6290839;20;2782624;-59
2023/05/27 10:13:31;;;;;;;;;16.00;11.00;;;;;26.53;42.33;100004.47;6309296;20;3527344;-61
2023/05/27 10:16:00;;;;;;;;;9.67;9.67;;;;;26.18;39.91;100009.66;6313735;20;3497193;-61
2023/05/27 10:18:30;;;;;;;;;12.00;12.00;;;;;25.66;40.79;100013.19;6318383;20;2483642;-62
2023/05/27 10:21:03;;;;;;;;;11.00;11.00;;;;;25.93;40.19;100009.88;6317869;20;2789995;-62
2023/05/27 10:23:32;;;;;;;;;13.80;10.40;;;;;25.42;38.69;100004.09;6341744;20;2787836;-64
2023/05/27 10:26:09;;;;;;;;;16.67;10.00;;;;;25.79;40.18;99991.41;6290854;20;2787761;-61
2023/05/27 10:28:40;;;;;;;;;11.67;11.67;;;;;26.18;40.33;99995.88;6314180;20;3507756;-60
2023/05/27 10:31:16;;;;;;;;;13.67;11.67;;;;;26.53;41.29;99998.97;6320578;20;2789946;-60
2023/05/27 10:33:48;;;;;;;;;11.50;11.50;;;;;26.74;39.80;99992.69;6316024;20;3389885;-60
2023/05/27 10:36:22;;;;;;;;;11.00;11.00;;;;;26.98;39.99;99997.84;6322471;20;2786762;-58
2023/05/27 10:39:04;;;;;;;;;12.00;10.00;;;;;26.95;39.64;99995.47;6305389;20;3517095;-59
2023/05/27 10:41:40;;;;;;;;;12.00;11.00;;;;;25.93;41.33;99987.84;6280363;20;3509730;-60
2023/05/27 10:44:09;;;;;;;;;14.00;11.00;;;;;25.31;43.37;99988.03;6281703;20;3524196;-55
2023/05/27 10:46:40;;;;;;;;;10.67;10.33;;;;;26.19;42.32;99992.94;6313177;20;2790113;-60
2023/05/27 10:49:23;;;;;;;;;15.33;12.67;;;;;27.10;40.01;99992.69;6313685;20;2488238;-57
2023/05/27 10:51:52;;;;;;;;;9.00;9.00;;;;;26.39;39.92;99990.47;6316111;20;2745059;-59
2023/05/27 10:54:24;;;;;;;;;12.67;12.00;;;;;27.14;40.69;99997.59;6312524;20;3509762;-59
2023/05/27 10:56:56;;;;;;;;;11.67;11.00;;;;;26.74;40.01;99992.69;6313398;20;3506623;-59
2023/05/27 10:59:32;;;;;;;;;13.00;10.33;;;;;26.81;40.79;99993.63;6314257;20;2489896;-60
2023/05/27 11:02:01;;;;;;;;;13.33;12.00;;;;;26.41;41.80;99980.13;6308047;20;3516023;-57
2023/05/27 11:04:37;;;;;;;;;12.67;12.00;;;;;26.97;40.51;99984.28;6279504;20;3517972;-61
2023/05/27 11:07:06;;;;;;;;;14.00;12.67;;;;;27.61;39.01;99987.09;6311857;20;3514941;-61
2023/05/27 11:09:48;;;;;;;;;13.00;11.00;;;;;28.27;39.72;99989.56;6281879;20;3507585;-61